METAR Data
IDs: Format: Raw Decoded Include TAF

Data at: 1143 UTC 16 Oct 2018

PAKF 161126Z AUTO 27004KT 10SM -RA FEW023 BKN030 OVC036 07/07 A2899 RMK AO2 PNO $
PAKF 161056Z AUTO 00000KT 4SM -RA BR BKN027 OVC035 07/07 A2898 RMK AO2 SLP814 T00720067 PNO $
PAKF 160956Z AUTO 00000KT 10SM -RA FEW013 BKN060 OVC100 07/06 A2896 RMK AO2 RAB09 SLP808 T00670061 PNO $
PAKF 160856Z AUTO 00000KT 10SM FEW020 SCT037 BKN055 07/07 A2895 RMK AO2 SLP805 6//// T00720067 401000072 51016 PNO $
PAKF 160756Z AUTO 00000KT 10SM SCT033 OVC050 08/07 A2894 RMK AO2 RAE0657B21E42 SLP800 T00830072 PNO $
PAKF 160730Z AUTO 13003KT 9SM -RA SCT013 BKN034 OVC048 08/08 A2893 RMK AO2 RAE0657B21 PNO $
PAKF 160715Z AUTO 20004KT 10SM BKN013 OVC038 08/07 A2893 RMK AO2 RAE0657 PNO $
PAKF 160656Z AUTO 00000KT 10SM -RA BKN033 BKN041 OVC050 08/07 A2892 RMK AO2 RAB46 SLP794 T00830072 PNO $
PAKF 160643Z AUTO 00000KT 10SM FEW020 BKN031 OVC040 08/07 A2892 RMK AO2 PNO $
PAKF 160629Z AUTO 00000KT 10SM FEW021 BKN029 OVC034 08/07 A2892 RMK AO2 PNO $
PAKF 160556Z AUTO 00000KT 10SM BKN036 OVC065 08/07 A2891 RMK AO2 RAE21 SLP789 6//// T00780072 10100 20078 51019 PNO $
PAKF 160456Z AUTO 00000KT 10SM -RA SCT034 OVC045 08/08 A2889 RMK AO2 RAE36B52 SLP782 T00830078 PNO $
PAKF 160356Z AUTO 27003KT 9SM -RA FEW032 BKN043 OVC055 09/08 A2887 RMK AO2 SLP777 T00890083 PNO $
PAKF 160256Z AUTO 00000KT 6SM -RA BR OVC034 09/08 A2885 RMK AO2 SLP770 6//// T00890078 53013 PNO $
PAKF 160156Z AUTO 13004KT 10SM -RA SCT034 BKN046 OVC060 09/08 A2883 RMK AO2 RAB16 SLP763 T00940078 PNO $
PAKF 160056Z AUTO 11004KT 10SM FEW036 BKN047 OVC060 10/08 A2882 RMK AO2 RAE10 SLP758 T01000078 PNO $
PAKF 152356Z AUTO 12006KT 10SM -RA BKN042 OVC049 09/07 A2881 RMK AO2 SLP757 6//// T00940072 10094 20083 53003 PNO $
PAKF 152309Z AUTO 14003KT 8SM -RA BKN031 OVC050 08/08 A2881 RMK AO2 PNO $
PAKF 152256Z AUTO 13004KT 7SM -RA OVC028 08/08 A2881 RMK AO2 SLP755 T00830078 PNO $
PAKF 152229Z AUTO 19003KT 3SM -RA BR BKN024 OVC035 08/08 A2880 RMK AO2 PNO $
PAKF 152223Z AUTO 00000KT 1 3/4SM -RA BR FEW018 OVC024 08/08 A2880 RMK AO2 PNO $
PAKF 152156Z AUTO 00000KT 2 1/2SM RA BR FEW010 BKN017 OVC023 09/08 A2880 RMK AO2 SLP754 T00890078 PNO $
PAKF 152145Z AUTO 00000KT 2SM RA BR SCT010 BKN015 OVC026 09/08 A2881 RMK AO2 PNO $
PAKF 152136Z AUTO 00000KT 2SM RA BR BKN010 BKN013 OVC024 09/08 A2881 RMK AO2 CIG 007V012 PNO $
PAKF 152127Z AUTO 00000KT 3SM RA BR FEW008 OVC012 09/08 A2881 RMK AO2 PNO $
PAKF 152117Z AUTO 27003KT 2 1/2SM RA BR FEW008 BKN012 OVC023 09/08 A2880 RMK AO2 PNO $
PAKF 152107Z AUTO 00000KT 4SM RA BR BKN012 BKN026 OVC034 09/08 A2880 RMK AO2 PNO $
PAKF 152056Z AUTO 00000KT 4SM RA BR SCT014 BKN024 OVC032 09/08 A2880 RMK AO2 SLP754 6//// T00890083 51000 PNO $
PAKF 152034Z AUTO 00000KT 7SM RA BKN016 BKN023 OVC033 09/08 A2880 RMK AO2 PNO $
PAKF 151956Z AUTO 28004KT 10SM -RA BKN012 BKN017 OVC038 09/08 A2880 RMK AO2 SLP754 T00890078 PNO $
PAKF 151943Z AUTO 00000KT 7SM -RA FEW010 BKN020 OVC042 09/08 A2881 RMK AO2 PNO $
PAKF 151856Z AUTO 13004KT 10SM -RA FEW018 BKN046 OVC055 09/08 A2881 RMK AO2 RAB18 SLP754 T00940078 PNO $
PAKF 151825Z AUTO 10009KT 8SM -RA FEW018 BKN033 OVC042 09/08 A2880 RMK AO2 RAB18 PNO $
PAKF 151756Z AUTO 09010KT 10SM FEW009 SCT014 OVC020 09/08 A2880 RMK AO2 RAE54 SLP753 6//// T00940078 10100 20089 56004 PNO $
PAKF 151737Z AUTO 10006KT 3SM -RA BR SCT010 BKN017 OVC031 09/08 A2881 RMK AO2 PNO $
PAKF 151733Z AUTO 11009G17KT 2SM -RA BR FEW010 BKN014 OVC031 09/08 A2880 RMK AO2 VIS 1 1/4V4 PNO $
PAKF 151730Z AUTO 11009G17KT 1 3/4SM +RA BR SCT012 BKN018 OVC026 09/08 A2881 RMK AO2 PNO $
PAKF 151656Z AUTO 11009KT 9SM -RA SCT012 OVC018 09/08 A2880 RMK AO2 SLP753 T00940078 PNO $
PAKF 151628Z AUTO 11009KT 10SM -RA BKN013 BKN028 OVC046 09/08 A2881 RMK AO2 PNO $
PAKF 151621Z AUTO 11010KT 10SM -RA SCT011 BKN020 OVC045 09/08 A2880 RMK AO2 PNO $
PAKF 151614Z AUTO 10012KT 10SM -RA SCT011 BKN033 OVC045 09/08 A2880 RMK AO2 PNO $
PAKF 151606Z AUTO 10014KT 9SM -RA BKN010 BKN018 OVC041 09/08 A2880 RMK AO2 PNO $
PAKF 151556Z AUTO 11009KT 10SM -RA SCT010 BKN018 OVC030 09/08 A2880 RMK AO2 SLP754 T00940083 PNO $
PAKF 151544Z AUTO 11009KT 10SM -RA BKN013 OVC019 09/08 A2881 RMK AO2 PNO $
PAKF 151503Z AUTO 11010KT 10SM -RA FEW009 OVC015 09/08 A2881 RMK AO2 PNO $
PAKF 151456Z AUTO 11012G18KT 8SM -RA SCT013 BKN017 OVC045 09/08 A2881 RMK AO2 SLP757 6//// T00940083 56013 PNO $
PAKF 151356Z AUTO 14008KT 7SM -RA BKN011 BKN019 OVC027 09/08 A2883 RMK AO2 RAE12B40 SLP761 T00940083 PNO $
PAKF 151352Z AUTO 15005KT 6SM -RA BR BKN009 BKN014 OVC032 09/08 A2882 RMK AO2 RAE12B40 PNO $
PAKF 151329Z AUTO 14009KT 10SM SCT011 BKN019 OVC029 09/08 A2883 RMK AO2 RAE12 PNO $
PAKF 151313Z AUTO 12008G19KT 10SM BKN011 OVC018 09/08 A2884 RMK AO2 RAE12 PNO $
PAKF 151301Z AUTO 12016G20KT 7SM -RA BKN009 BKN013 OVC018 09/08 A2883 RMK AO2 CIG 007V012 PNO $
PAKF 151256Z AUTO 11013G19KT 4SM -RA BR BKN011 BKN018 OVC025 09/08 A2883 RMK AO2 RAB22 SLP764 T00940083 PNO $
PAKF 151247Z AUTO 10015G18KT 3SM -RA BR SCT009 BKN016 OVC060 09/08 A2884 RMK AO2 RAB22 PNO $
PAKF 151239Z AUTO 11008KT 5SM RA BR FEW009 BKN014 OVC055 09/08 A2884 RMK AO2 RAB22 CIG 011V023 PNO $
PAKF 151209Z AUTO 09011G19KT 10SM SCT020 BKN047 OVC080 10/08 A2884 RMK AO2 PNO $
PAKF 151156Z AUTO 09014G19KT 10SM SCT015 BKN022 OVC080 10/08 A2885 RMK AO2 RAB09E43 SLP769 6//// 7//// T01000078 10100 20094 58016 PNO $
PAKF 151134Z AUTO 09013G20KT 9SM -RA SCT013 BKN020 OVC036 09/08 A2886 RMK AO2 RAB09 PNO $
PAKF 151056Z AUTO 11012G17KT 9SM OVC012 10/08 A2887 RMK AO2 SLP775 T01000083 PNO $
PAKF 150956Z AUTO 12013G16KT 9SM BKN012 OVC019 10/08 A2888 RMK AO2 RAB0858E28 SLP781 T01000083 PNO $
PAKF 150856Z AUTO 12014G20KT 8SM BKN014 BKN019 OVC024 10/08 A2890 RMK AO2 RAE13 SLP785 6//// T01000083 401170078 56011 PNO $
PAKF 150756Z AUTO 12014G22KT 6SM -RA BR OVC010 10/08 A2890 RMK AO2 RAB04 SLP788 T01000083 PNO $
PAKF 150725Z AUTO 14008G17KT 4SM +RA BR SCT010 BKN014 OVC021 09/08 A2891 RMK AO2 RAB04 PNO $
PAKF 150656Z AUTO 12013G17KT 10SM BKN020 BKN025 OVC030 09/07 A2891 RMK AO2 RAB19E44 SLP791 T00940072 PNO $
PAKF 150644Z AUTO 12014G21KT 10SM SCT016 BKN021 OVC030 09/07 A2891 RMK AO2 RAB19E44 PNO $
PAKF 150632Z AUTO 11016G22KT 9SM -RA BKN014 BKN021 OVC028 09/08 A2892 RMK AO2 RAB19 PNO $
PAKF 150556Z AUTO 13014G19KT 10SM SCT019 BKN027 OVC037 09/07 A2893 RMK AO2 RAE50 SLP796 6//// T00940072 10106 20083 55002 PNO $
PAKF 150548Z AUTO 15005KT 10SM -RA FEW021 BKN027 OVC039 09/07 A2893 RMK AO2 PNO $
PAKF 150532Z AUTO 16010G16KT 10SM -RA FEW012 BKN035 OVC043 09/07 A2893 RMK AO2 PNO $
PAKF 150456Z AUTO 11008KT 7SM RA FEW012 BKN024 OVC043 09/07 A2892 RMK AO2 SLP795 T00940072 PNO $
PAKF 150443Z AUTO 12016G23KT 7SM -RA BKN014 BKN020 OVC031 09/07 A2893 RMK AO2 PNO $
PAKF 150405Z AUTO 17005KT 9SM -RA BKN020 BKN036 OVC043 08/07 A2893 RMK AO2 PNO $
PAKF 150356Z AUTO 15004KT 5SM -RA BR FEW012 BKN030 OVC042 08/07 A2894 RMK AO2 SLP799 T00830072 PNO $
PAKF 150344Z AUTO VRB05KT 3SM RA BR FEW012 SCT027 OVC039 08/07 A2894 RMK AO2 PNO $
PAKF 150337Z AUTO 17004KT 4SM RA BR FEW012 BKN022 OVC047 08/07 A2894 RMK AO2 PNO $
PAKF 150307Z AUTO 17009G17KT 6SM RA BR SCT012 SCT019 OVC042 09/07 A2894 RMK AO2 PNO $
PAKF 150256Z AUTO 16012G19KT 5SM -RA BR BKN012 BKN019 OVC050 09/08 A2893 RMK AO2 RAE06B49 SLP798 6//// T00940078 56011 PNO $
PAKF 150223Z AUTO 13013G20KT 7SM SCT011 BKN015 OVC021 10/08 A2894 RMK AO2 RAE06 PNO $
PAKF 150209Z AUTO 14013G17KT 9SM BKN011 OVC017 09/08 A2894 RMK AO2 RAE06 PNO $
PAKF 150156Z AUTO 15009G20KT 4SM -RA BR FEW009 BKN017 OVC027 09/08 A2894 RMK AO2 RAE11B37 SLP801 T00940083 PNO $
PAKF 150149Z AUTO 13017G21KT 3SM RA BR FEW009 BKN018 OVC027 10/09 A2895 RMK AO2 RAE11B37 PNO $
PAKF 150107Z AUTO 14010KT 5SM -RA BR BKN016 BKN026 OVC047 10/09 A2895 RMK AO2 PNO $
PAKF 150056Z AUTO 14013G17KT 6SM -RA BR BKN014 BKN022 OVC050 10/09 A2896 RMK AO2 RAB12 SLP805 T01000089 PNO $
PAKF 150023Z AUTO 15009KT 10SM -RA BKN020 BKN033 OVC080 11/08 A2896 RMK AO2 RAB12 PNO $
PAKF 142356Z AUTO 15011G16KT 9SM FEW025 BKN046 OVC080 11/08 A2897 RMK AO2 SLP809 6//// T01110078 10117 20094 56009 PNO $